createdAt,value
2023-02-22T00:00:19.368Z,7.77
2023-02-22T00:02:48.441Z,6.70
2023-02-22T00:05:20.012Z,7.13
2023-02-22T00:07:48.396Z,7.37
2023-02-22T00:10:20.396Z,7.20
2023-02-22T00:12:48.911Z,6.83
2023-02-22T00:15:17.475Z,6.63
2023-02-22T00:17:45.080Z,6.97
2023-02-22T00:20:14.164Z,7.47
2023-02-22T00:22:43.671Z,7.17
2023-02-22T00:25:11.265Z,7.13
2023-02-22T00:27:38.780Z,6.90
2023-02-22T00:30:06.974Z,7.57
2023-02-22T00:32:34.679Z,7.45
2023-02-22T00:35:05.516Z,7.00
2023-02-22T00:37:33.604Z,6.83
2023-02-22T00:40:02.510Z,6.80
2023-02-22T00:42:30.102Z,7.30
2023-02-22T00:44:57.648Z,8.10
2023-02-22T00:47:26.417Z,6.40
2023-02-22T00:49:53.939Z,7.43
2023-02-22T00:52:21.523Z,7.13
2023-02-22T00:54:49.534Z,7.03
2023-02-22T00:57:19.180Z,7.00
2023-02-22T00:59:46.808Z,7.23
2023-02-22T01:02:14.417Z,7.17
2023-02-22T01:04:42.045Z,6.53
2023-02-22T01:07:09.720Z,7.23
2023-02-22T01:09:39.594Z,7.33
2023-02-22T01:12:08.107Z,7.43
2023-02-22T01:14:37.343Z,7.10
2023-02-22T01:17:05.325Z,6.72
2023-02-22T01:19:33.014Z,6.87
2023-02-22T01:22:00.559Z,6.43
2023-02-22T01:24:28.098Z,6.50
2023-02-22T01:26:55.616Z,6.87
2023-02-22T01:29:23.216Z,6.53
2023-02-22T01:31:56.141Z,7.10
2023-02-22T01:34:24.736Z,7.27
2023-02-22T01:36:52.391Z,7.70
2023-02-22T01:39:19.912Z,7.00
2023-02-22T01:41:47.692Z,7.30
2023-02-22T01:44:22.738Z,7.20
2023-02-22T01:46:50.333Z,7.33
2023-02-22T01:49:19.405Z,7.07
2023-02-22T01:51:48.506Z,7.50
2023-02-22T01:54:17.587Z,7.10
2023-02-22T01:56:50.486Z,7.50
2023-02-22T01:59:18.882Z,7.10
2023-02-22T02:01:46.582Z,7.47
2023-02-22T02:04:17.010Z,7.60
2023-02-22T02:06:46.407Z,7.07
2023-02-22T02:09:17.060Z,7.20
2023-02-22T02:11:45.222Z,7.00
2023-02-22T02:14:13.145Z,7.65
2023-02-22T02:16:43.487Z,7.07
2023-02-22T02:19:16.614Z,7.70
2023-02-22T02:21:55.015Z,7.73
2023-02-22T02:24:52.828Z,7.53
2023-02-22T02:27:21.091Z,7.20
2023-02-22T02:30:00.025Z,8.10
2023-02-22T02:32:32.898Z,9.87
2023-02-22T02:35:03.100Z,9.23
2023-02-22T02:37:34.265Z,10.03
2023-02-22T02:40:07.716Z,10.47
2023-02-22T02:42:39.128Z,12.37
2023-02-22T02:45:10.544Z,11.33
2023-02-22T02:47:41.579Z,9.77
2023-02-22T02:50:10.909Z,8.80
2023-02-22T02:52:39.144Z,7.80
2023-02-22T02:55:07.734Z,7.57
2023-02-22T02:57:35.257Z,7.50
2023-02-22T03:00:22.219Z,7.97
2023-02-22T03:02:59.032Z,8.77
2023-02-22T03:05:33.102Z,9.23
2023-02-22T03:08:02.358Z,8.83
2023-02-22T03:10:38.879Z,8.93
2023-02-22T03:13:10.119Z,8.20
2023-02-22T03:15:43.616Z,7.53
2023-02-22T03:18:17.764Z,7.73
2023-02-22T03:20:47.617Z,8.17
2023-02-22T03:23:20.202Z,9.50
2023-02-22T03:25:49.480Z,8.03
2023-02-22T03:28:18.590Z,8.07
2023-02-22T03:30:47.822Z,8.57
2023-02-22T03:33:20.481Z,8.00
2023-02-22T03:35:50.365Z,8.17
2023-02-22T03:38:20.161Z,7.70
2023-02-22T03:40:49.742Z,7.90
2023-02-22T03:43:19.672Z,7.80
2023-02-22T03:45:48.367Z,8.83
2023-02-22T03:48:21.328Z,8.37
2023-02-22T03:50:50.022Z,8.00
2023-02-22T03:53:18.502Z,9.27
2023-02-22T03:55:46.708Z,8.10
2023-02-22T03:58:14.924Z,8.67
2023-02-22T04:00:44.609Z,8.67
2023-02-22T04:03:12.497Z,9.60
2023-02-22T04:05:41.395Z,9.00
2023-02-22T04:08:08.898Z,8.50
2023-02-22T04:10:37.931Z,7.67
2023-02-22T04:13:07.032Z,7.90
2023-02-22T04:15:34.576Z,8.03
2023-02-22T04:18:02.106Z,9.10
2023-02-22T04:20:29.794Z,8.40
2023-02-22T04:22:58.826Z,8.90
2023-02-22T04:25:26.343Z,9.73
2023-02-22T04:27:54.305Z,8.67
2023-02-22T04:30:22.029Z,8.90
2023-02-22T04:32:49.716Z,8.80
2023-02-22T04:35:17.381Z,9.00
2023-02-22T04:37:44.899Z,8.03
2023-02-22T04:40:14.002Z,7.80
2023-02-22T04:42:41.598Z,7.70
2023-02-22T04:45:10.541Z,8.43
2023-02-22T04:47:38.295Z,8.47
2023-02-22T04:50:06.612Z,9.57
2023-02-22T04:52:34.201Z,8.77
2023-02-22T04:55:01.809Z,8.67
2023-02-22T04:57:30.732Z,8.87
2023-02-22T04:59:58.258Z,8.70
2023-02-22T05:02:33.218Z,8.47
2023-02-22T05:05:00.865Z,8.27
2023-02-22T05:07:28.590Z,8.07
2023-02-22T05:09:56.186Z,9.03
2023-02-22T05:12:23.646Z,8.07
2023-02-22T05:14:52.960Z,8.97
2023-02-22T05:17:20.539Z,9.37
2023-02-22T05:19:48.827Z,8.73
2023-02-22T05:22:16.440Z,8.57
2023-02-22T05:24:43.975Z,8.70
2023-02-22T05:27:11.830Z,8.70
2023-02-22T05:29:39.603Z,8.60
2023-02-22T05:32:08.520Z,9.00
2023-02-22T05:34:38.416Z,8.77
2023-02-22T05:37:06.014Z,8.80
2023-02-22T05:39:33.542Z,8.47
2023-02-22T05:42:01.107Z,8.83
2023-02-22T05:44:28.988Z,9.20
2023-02-22T05:46:56.527Z,9.27
2023-02-22T05:49:25.398Z,9.67
2023-02-22T05:51:53.090Z,9.17
2023-02-22T05:54:20.607Z,9.37
2023-02-22T05:56:48.104Z,9.20
2023-02-22T05:59:16.064Z,9.23
2023-02-22T06:01:43.619Z,8.97
2023-02-22T06:04:11.181Z,8.80
2023-02-22T06:06:40.022Z,9.37
2023-02-22T06:09:07.566Z,8.87
2023-02-22T06:11:35.141Z,9.43
2023-02-22T06:14:02.720Z,8.97
2023-02-22T06:16:31.876Z,9.83
2023-02-22T06:18:59.787Z,9.57
2023-02-22T06:21:27.296Z,9.00
2023-02-22T06:23:56.836Z,9.20
2023-02-22T06:26:24.319Z,9.00
2023-02-22T06:28:51.989Z,9.53
2023-02-22T06:31:19.761Z,9.63
2023-02-22T06:33:47.436Z,10.20
2023-02-22T06:36:14.947Z,8.83
2023-02-22T06:38:43.045Z,9.33
2023-02-22T06:41:11.966Z,8.53
2023-02-22T06:43:39.451Z,9.33
2023-02-22T06:46:10.284Z,8.97
2023-02-22T06:48:38.075Z,9.37
2023-02-22T06:51:05.672Z,14.00
2023-02-22T06:53:33.132Z,14.23
2023-02-22T06:56:00.845Z,11.93
2023-02-22T06:58:29.685Z,13.23
2023-02-22T07:00:57.076Z,13.10
2023-02-22T07:03:24.667Z,11.07
2023-02-22T07:05:52.175Z,18.00
2023-02-22T07:08:19.651Z,16.23
2023-02-22T07:10:48.456Z,12.77
2023-02-22T07:13:15.944Z,12.13
2023-02-22T07:15:44.930Z,10.10
2023-02-22T07:18:13.221Z,10.43
2023-02-22T07:20:40.771Z,10.20
2023-02-22T07:23:08.160Z,9.17
2023-02-22T07:25:36.001Z,10.77
2023-02-22T07:28:03.515Z,11.40
2023-02-22T07:30:32.194Z,10.47
2023-02-22T07:33:01.935Z,10.60
2023-02-22T07:35:30.106Z,9.53
2023-02-22T07:37:57.955Z,10.25
2023-02-22T07:40:26.404Z,8.70
2023-02-22T07:42:54.933Z,10.43
2023-02-22T07:45:23.201Z,9.57
2023-02-22T07:47:50.661Z,9.97
2023-02-22T07:50:19.846Z,9.20
2023-02-22T07:52:47.876Z,9.50
2023-02-22T07:55:16.735Z,9.77
2023-02-22T07:57:44.157Z,9.77
2023-02-22T08:00:14.376Z,7.60
2023-02-22T08:02:42.217Z,10.53
2023-02-22T08:05:10.748Z,7.90
2023-02-22T08:07:43.258Z,8.35
2023-02-22T08:10:11.369Z,8.13
2023-02-22T08:12:39.271Z,9.27
2023-02-22T08:15:07.656Z,8.82
2023-02-22T08:17:35.061Z,9.25
2023-02-22T08:20:03.206Z,8.77
2023-02-22T08:22:30.697Z,8.55
2023-02-22T08:24:59.474Z,8.15
2023-02-22T08:27:27.751Z,8.85
2023-02-22T08:29:55.699Z,8.07
2023-02-22T08:32:23.777Z,8.35
2023-02-22T08:34:51.419Z,8.50
2023-02-22T08:37:19.429Z,7.75
2023-02-22T08:39:46.926Z,8.00
2023-02-22T08:42:15.765Z,7.38
2023-02-22T08:44:43.423Z,8.57
2023-02-22T08:47:10.943Z,8.13
2023-02-22T08:49:43.197Z,7.53
2023-02-22T08:52:10.830Z,7.88
2023-02-22T08:54:38.278Z,8.32
2023-02-22T08:57:05.998Z,8.15
2023-02-22T08:59:34.796Z,7.93
2023-02-22T09:02:02.972Z,7.88
2023-02-22T09:04:30.465Z,8.75
2023-02-22T09:06:57.932Z,7.75
2023-02-22T09:09:26.084Z,7.88
2023-02-22T09:11:53.517Z,8.23
2023-02-22T09:14:21.098Z,8.15
2023-02-22T09:16:53.689Z,7.18
2023-02-22T09:19:21.417Z,7.22
2023-02-22T09:21:53.222Z,7.82
2023-02-22T09:24:20.834Z,7.30
2023-02-22T09:26:51.960Z,7.70
2023-02-22T09:29:22.752Z,8.27
2023-02-22T09:31:52.198Z,7.85
2023-02-22T09:34:20.179Z,7.68
2023-02-22T09:36:48.264Z,7.15
2023-02-22T09:39:16.862Z,7.63
2023-02-22T09:41:48.079Z,8.20
2023-02-22T09:44:19.429Z,7.63
2023-02-22T09:46:47.814Z,7.57
2023-02-22T09:49:21.058Z,7.07
2023-02-22T09:51:49.926Z,7.28
2023-02-22T09:54:22.693Z,7.78
2023-02-22T09:56:53.746Z,7.95
2023-02-22T09:59:24.089Z,7.22
2023-02-22T10:01:56.444Z,8.10
2023-02-22T10:04:30.427Z,7.63
2023-02-22T10:07:06.083Z,8.80
2023-02-22T10:09:37.726Z,8.60
2023-02-22T10:12:11.964Z,7.72
2023-02-22T10:14:46.342Z,7.68
2023-02-22T10:17:19.329Z,8.07
2023-02-22T10:19:53.759Z,7.28
2023-02-22T10:22:26.766Z,7.85
2023-02-22T10:24:58.051Z,8.38
2023-02-22T10:27:29.263Z,7.43
2023-02-22T10:30:00.174Z,7.53
2023-02-22T10:32:30.155Z,8.13
2023-02-22T10:34:59.395Z,8.48
2023-02-22T10:37:28.224Z,8.25
2023-02-22T10:40:00.013Z,7.40
2023-02-22T10:42:28.169Z,8.13
2023-02-22T10:44:55.702Z,7.28
2023-02-22T10:47:23.652Z,6.75
2023-02-22T10:49:53.563Z,8.07
2023-02-22T10:52:26.032Z,7.47
2023-02-22T10:55:01.053Z,7.30
2023-02-22T10:57:34.731Z,7.55
2023-02-22T11:00:14.420Z,7.10
2023-02-22T11:02:50.675Z,7.03
2023-02-22T11:05:27.467Z,7.03
2023-02-22T11:08:14.838Z,7.40
2023-02-22T11:10:43.427Z,8.13
2023-02-22T11:13:20.602Z,6.97
2023-02-22T11:15:48.277Z,7.70
2023-02-22T11:18:23.778Z,6.90
2023-02-22T11:21:00.030Z,6.50
2023-02-22T11:23:28.928Z,7.22
2023-02-22T11:26:02.675Z,7.40
2023-02-22T11:28:32.821Z,7.15
2023-02-22T11:31:10.225Z,7.18
2023-02-22T11:33:38.436Z,6.82
2023-02-22T11:36:09.385Z,9.10
2023-02-22T11:38:38.763Z,6.80
2023-02-22T11:41:08.310Z,10.90
2023-02-22T11:43:35.942Z,28.10
2023-02-22T11:46:04.726Z,27.00
2023-02-22T11:48:34.754Z,9.88
2023-02-22T11:51:07.352Z,8.18
2023-02-22T11:53:46.100Z,16.35
2023-02-22T11:56:20.582Z,7.72
2023-02-22T11:58:54.067Z,7.22
2023-02-22T12:01:27.918Z,7.63
2023-02-22T12:04:10.473Z,7.13
2023-02-22T12:06:42.680Z,6.80
2023-02-22T12:09:14.624Z,6.75
2023-02-22T12:11:46.126Z,7.35
2023-02-22T12:14:19.083Z,8.15
2023-02-22T12:16:57.541Z,7.57
2023-02-22T12:19:28.702Z,7.68
2023-02-22T12:21:57.923Z,7.15
2023-02-22T12:24:29.607Z,7.32
2023-02-22T12:27:01.444Z,8.10
2023-02-22T12:29:33.081Z,8.65
2023-02-22T12:32:03.657Z,7.47
2023-02-22T12:34:34.025Z,16.70
2023-02-22T12:37:05.096Z,17.75
2023-02-22T12:39:52.280Z,7.75
2023-02-22T12:42:23.112Z,7.95
2023-02-22T12:44:55.454Z,7.53
2023-02-22T12:47:26.815Z,7.07
2023-02-22T12:49:59.372Z,8.02
2023-02-22T12:52:40.993Z,6.20
2023-02-22T12:55:12.320Z,6.53
2023-02-22T12:57:44.400Z,6.95
2023-02-22T13:00:17.895Z,7.45
2023-02-22T13:02:47.082Z,7.03
2023-02-22T13:05:15.382Z,6.90
2023-02-22T13:07:46.645Z,8.35
2023-02-22T13:10:34.884Z,9.23
2023-02-22T13:13:05.422Z,6.93
2023-02-22T13:15:37.918Z,6.50
2023-02-22T13:18:11.621Z,6.72
2023-02-22T13:20:41.837Z,6.80
2023-02-22T13:23:12.280Z,6.82
2023-02-22T13:25:45.278Z,7.28
2023-02-22T13:28:22.893Z,6.50
2023-02-22T13:30:57.037Z,6.82
2023-02-22T13:33:35.303Z,7.35
2023-02-22T13:36:10.468Z,7.40
2023-02-22T13:38:56.904Z,6.70
2023-02-22T13:41:43.045Z,6.72
2023-02-22T13:44:35.512Z,6.40
2023-02-22T13:47:18.329Z,6.18
2023-02-22T13:49:52.578Z,6.15
2023-02-22T13:52:22.133Z,6.53
2023-02-22T13:54:54.365Z,6.20
2023-02-22T13:57:23.255Z,6.32
2023-02-22T14:00:12.294Z,6.40
2023-02-22T14:02:54.623Z,6.70
2023-02-22T14:05:38.920Z,6.47
2023-02-22T14:08:06.716Z,6.55
2023-02-22T14:10:38.986Z,6.22
2023-02-22T14:13:07.662Z,5.75
2023-02-22T14:15:36.626Z,7.13
2023-02-22T14:18:04.920Z,6.60
2023-02-22T14:20:36.040Z,9.02
2023-02-22T14:23:22.412Z,17.08
2023-02-22T14:25:50.696Z,7.80
2023-02-22T14:28:48.745Z,14.98
2023-02-22T14:31:34.512Z,8.85
2023-02-22T14:34:08.402Z,7.40
2023-02-22T14:36:39.571Z,7.63
2023-02-22T14:39:10.393Z,7.70
2023-02-22T14:41:38.924Z,7.32
2023-02-22T14:44:06.619Z,7.40
2023-02-22T14:46:40.462Z,7.85
2023-02-22T14:49:10.684Z,7.63
2023-02-22T14:51:42.700Z,8.40
2023-02-22T14:54:13.239Z,9.23
2023-02-22T14:56:44.316Z,8.85
2023-02-22T14:59:16.091Z,8.15
2023-02-22T15:02:01.529Z,9.85
2023-02-22T15:04:33.607Z,9.13
2023-02-22T15:07:03.294Z,8.82
2023-02-22T15:09:34.909Z,8.52
2023-02-22T15:12:12.930Z,8.05
2023-02-22T15:14:42.037Z,8.77
2023-02-22T15:17:18.443Z,9.30
2023-02-22T15:19:50.409Z,8.93
2023-02-22T15:22:22.229Z,8.88
2023-02-22T15:24:57.190Z,9.25
2023-02-22T15:27:24.749Z,8.98
2023-02-22T15:29:57.998Z,8.85
2023-02-22T15:32:31.978Z,8.48
2023-02-22T15:35:12.567Z,8.05
2023-02-22T15:37:40.424Z,8.27
2023-02-22T15:40:14.481Z,8.43
2023-02-22T15:42:46.255Z,8.63
2023-02-22T15:45:19.901Z,8.48
2023-02-22T15:47:50.397Z,8.48
2023-02-22T15:50:21.432Z,8.60
2023-02-22T15:52:53.017Z,8.40
2023-02-22T15:55:22.720Z,8.38
2023-02-22T15:57:52.296Z,8.65
2023-02-22T16:00:21.334Z,8.60
2023-02-22T16:02:51.177Z,9.00
2023-02-22T16:05:19.233Z,8.77
2023-02-22T16:07:49.043Z,8.35
2023-02-22T16:10:21.415Z,9.77
2023-02-22T16:12:49.250Z,8.52
2023-02-22T16:15:18.354Z,8.80
2023-02-22T16:18:00.008Z,9.65
2023-02-22T16:20:37.208Z,9.23
2023-02-22T16:23:19.618Z,9.02
2023-02-22T16:25:47.283Z,11.40
2023-02-22T16:28:26.052Z,10.43
2023-02-22T16:30:58.249Z,9.82
2023-02-22T16:33:29.699Z,10.70
2023-02-22T16:35:58.749Z,10.52
2023-02-22T16:38:27.551Z,10.50
2023-02-22T16:40:56.143Z,10.80
2023-02-22T16:43:24.491Z,12.30
2023-02-22T16:45:52.878Z,11.98
2023-02-22T16:48:21.520Z,11.95
2023-02-22T16:50:51.291Z,11.32
2023-02-22T16:53:21.916Z,10.55
2023-02-22T16:55:50.323Z,10.13
2023-02-22T16:58:18.966Z,12.23
2023-02-22T17:00:46.774Z,12.57
2023-02-22T17:03:16.332Z,12.75
2023-02-22T17:05:45.284Z,12.35
2023-02-22T17:08:13.323Z,14.05
2023-02-22T17:10:42.297Z,12.68
2023-02-22T17:13:21.822Z,32.03
2023-02-22T17:15:54.875Z,30.35
2023-02-22T17:18:23.490Z,22.02
2023-02-22T17:20:51.726Z,15.50
2023-02-22T17:23:20.008Z,15.13
2023-02-22T17:25:50.443Z,13.95
2023-02-22T17:28:18.117Z,11.60
2023-02-22T17:30:48.867Z,11.50
2023-02-22T17:33:17.523Z,12.52
2023-02-22T17:35:47.082Z,11.88
2023-02-22T17:38:18.450Z,11.02
2023-02-22T17:40:48.074Z,10.95
2023-02-22T17:43:19.464Z,11.60
2023-02-22T17:45:47.339Z,10.80
2023-02-22T17:48:15.379Z,10.98
2023-02-22T17:50:45.032Z,10.15
2023-02-22T17:53:12.554Z,9.18
2023-02-22T17:55:40.608Z,10.13
2023-02-22T17:58:14.691Z,10.07
2023-02-22T18:00:46.042Z,14.05
2023-02-22T18:03:16.402Z,33.47
2023-02-22T18:05:46.172Z,41.55
2023-02-22T18:08:13.791Z,14.27
2023-02-22T18:10:42.332Z,12.43
2023-02-22T18:13:09.993Z,10.50
2023-02-22T18:15:40.406Z,10.90
2023-02-22T18:18:09.669Z,10.50
2023-02-22T18:20:39.117Z,10.30
2023-02-22T18:23:08.310Z,9.43
2023-02-22T18:25:36.423Z,10.52
2023-02-22T18:28:04.794Z,10.77
2023-02-22T18:30:32.731Z,11.20
2023-02-22T18:33:00.581Z,11.65
2023-02-22T18:35:29.518Z,11.70
2023-02-22T18:37:57.068Z,14.18
2023-02-22T18:40:24.667Z,11.40
2023-02-22T18:42:52.288Z,12.13
2023-02-22T18:45:21.152Z,12.18
2023-02-22T18:47:48.702Z,12.20
2023-02-22T18:50:17.204Z,13.02
2023-02-22T18:52:46.324Z,12.68
2023-02-22T18:55:15.119Z,12.82
2023-02-22T18:57:42.782Z,12.30
2023-02-22T19:00:12.193Z,12.40
2023-02-22T19:02:43.494Z,12.50
2023-02-22T19:05:11.658Z,13.20
2023-02-22T19:07:39.672Z,11.48
2023-02-22T19:10:08.652Z,12.07
2023-02-22T19:12:36.200Z,11.60
2023-02-22T19:15:03.912Z,12.65
2023-02-22T19:17:32.710Z,12.57
2023-02-22T19:20:00.306Z,12.18
2023-02-22T19:22:32.745Z,12.30
2023-02-22T19:25:03.746Z,14.02
2023-02-22T19:27:34.193Z,12.07
2023-02-22T19:30:03.791Z,12.20
2023-02-22T19:32:33.711Z,14.82
2023-02-22T19:35:07.028Z,14.75
2023-02-22T19:38:06.262Z,17.73
2023-02-22T19:40:42.468Z,14.55
2023-02-22T19:43:11.508Z,13.57
2023-02-22T19:45:40.178Z,13.48
2023-02-22T19:48:07.660Z,13.75
2023-02-22T19:50:35.151Z,12.45
2023-02-22T19:53:02.996Z,12.15
2023-02-22T19:55:32.330Z,11.45
2023-02-22T19:58:00.181Z,11.73
2023-02-22T20:00:35.395Z,12.20
2023-02-22T20:03:06.691Z,11.02
2023-02-22T20:05:37.192Z,11.70
2023-02-22T20:08:04.953Z,11.60
2023-02-22T20:10:34.317Z,12.60
2023-02-22T20:13:02.571Z,11.50
2023-02-22T20:15:31.470Z,11.73
2023-02-22T20:18:00.162Z,11.80
2023-02-22T20:20:30.329Z,12.02
2023-02-22T20:22:58.300Z,11.18
2023-02-22T20:25:25.939Z,12.32
2023-02-22T20:27:53.441Z,12.32
2023-02-22T20:30:23.046Z,14.82
2023-02-22T20:32:52.092Z,16.10
2023-02-22T20:35:19.749Z,15.85
2023-02-22T20:37:47.305Z,15.10
2023-02-22T20:40:14.882Z,14.93
2023-02-22T20:42:44.323Z,15.98
2023-02-22T20:45:12.100Z,14.27
2023-02-22T20:47:39.665Z,13.98
2023-02-22T20:50:09.884Z,13.88
2023-02-22T20:52:37.387Z,14.43
2023-02-22T20:55:06.173Z,14.98
2023-02-22T20:57:33.718Z,13.88
2023-02-22T21:00:01.243Z,14.55
2023-02-22T21:02:28.700Z,13.98
2023-02-22T21:04:56.211Z,15.30
2023-02-22T21:07:25.010Z,15.70
2023-02-22T21:09:52.515Z,17.73
2023-02-22T21:12:19.997Z,15.63
2023-02-22T21:14:47.455Z,14.60
2023-02-22T21:17:15.047Z,15.35
2023-02-22T21:19:42.612Z,15.75
2023-02-22T21:22:10.075Z,14.77
2023-02-22T21:24:38.941Z,16.65
2023-02-22T21:27:06.919Z,14.93
2023-02-22T21:29:35.927Z,14.30
2023-02-22T21:32:03.866Z,14.02
2023-02-22T21:34:31.759Z,14.07
2023-02-22T21:36:59.249Z,14.30
2023-02-22T21:39:28.700Z,15.45
2023-02-22T21:42:00.101Z,15.57
2023-02-22T21:44:28.261Z,16.17
2023-02-22T21:46:57.722Z,15.38
2023-02-22T21:49:25.502Z,14.70
2023-02-22T21:51:53.389Z,15.40
2023-02-22T21:54:20.928Z,16.55
2023-02-22T21:56:48.681Z,14.90
2023-02-22T21:59:20.100Z,14.18
2023-02-22T22:01:49.854Z,15.60
2023-02-22T22:04:19.331Z,14.18
2023-02-22T22:06:49.740Z,14.02
2023-02-22T22:09:23.193Z,14.75
2023-02-22T22:11:54.678Z,15.73
2023-02-22T22:14:24.443Z,15.27
2023-02-22T22:16:53.483Z,15.07
2023-02-22T22:19:25.429Z,16.15
2023-02-22T22:21:53.998Z,15.43
2023-02-22T22:24:22.385Z,16.23
2023-02-22T22:26:54.696Z,16.58
2023-02-22T22:29:24.529Z,17.48
2023-02-22T22:31:52.405Z,16.63
2023-02-22T22:34:20.024Z,16.27
2023-02-22T22:36:48.098Z,15.65
2023-02-22T22:39:20.934Z,15.68
2023-02-22T22:41:49.089Z,15.80
2023-02-22T22:44:22.130Z,15.95
2023-02-22T22:46:53.651Z,15.75
2023-02-22T22:49:25.506Z,15.88
2023-02-22T22:51:53.452Z,16.23
2023-02-22T22:54:20.924Z,16.90
2023-02-22T22:56:48.482Z,17.23
2023-02-22T22:59:16.053Z,16.83
2023-02-22T23:01:45.296Z,15.38
2023-02-22T23:04:16.227Z,15.00
2023-02-22T23:06:45.279Z,15.60
2023-02-22T23:09:15.256Z,15.85
2023-02-22T23:11:45.011Z,16.20
2023-02-22T23:14:13.384Z,16.30
2023-02-22T23:16:42.183Z,16.55
2023-02-22T23:19:10.143Z,16.92
2023-02-22T23:21:39.436Z,16.35
2023-02-22T23:24:07.281Z,16.50
2023-02-22T23:26:35.207Z,16.73
2023-02-22T23:29:03.288Z,15.27
2023-02-22T23:31:32.053Z,14.52
2023-02-22T23:34:00.109Z,15.70
2023-02-22T23:36:27.984Z,15.90
2023-02-22T23:38:56.808Z,15.57
2023-02-22T23:41:28.102Z,15.65
2023-02-22T23:43:55.587Z,15.48
2023-02-22T23:46:23.136Z,16.70
2023-02-22T23:48:51.485Z,17.42
2023-02-22T23:51:25.170Z,17.45
2023-02-22T23:53:55.559Z,16.00
2023-02-22T23:56:25.027Z,16.75
2023-02-22T23:58:52.518Z,17.58
